Time;durP1;ratioP1;P1;durP2;ratioP2;P2;SDS_P1;SDS_P2;PMS_P1;PMS_P2;Temp;Humidity;BMP_temperature;BMP_pressure;BME280_temperature;BME280_humidity;BME280_pressure;Samples;Min_cycle;Max_cycle;Signal;HPM_P1;HPM_P2
2023/04/29 00:02:07;;;;;;;18.00;14.50;;;;;;;-128.00;-1.00;-1.00;105498;1252;1005206;-73
2023/04/29 00:04:34;;;;;;;20.90;14.40;;;;;;;-128.00;-1.00;-1.00;105717;1251;1005241;-72
2023/04/29 00:07:01;;;;;;;21.80;15.40;;;;;;;-128.00;-1.00;-1.00;105693;1252;1004365;-72
2023/04/29 00:09:27;;;;;;;22.80;15.40;;;;;;;-128.00;-1.00;-1.00;105703;1252;1004031;-72
2023/04/29 00:11:54;;;;;;;25.30;16.90;;;;;;;-128.00;-1.00;-1.00;105710;1251;1004015;-73
2023/04/29 00:14:20;;;;;;;22.50;16.20;;;;;;;-128.00;-1.00;-1.00;105716;1252;1003740;-72
2023/04/29 00:16:47;;;;;;;22.20;15.80;;;;;;;-128.00;-1.00;-1.00;105708;1251;1005375;-72
2023/04/29 00:19:13;;;;;;;22.00;15.90;;;;;;;-128.00;-1.00;-1.00;105730;1251;1003464;-72
2023/04/29 00:21:40;;;;;;;21.90;16.90;;;;;;;-128.00;-1.00;-1.00;105756;1252;1004137;-72
2023/04/29 00:24:06;;;;;;;19.20;15.90;;;;;;;-128.00;-1.00;-1.00;105737;1252;1004371;-72
2023/04/29 00:26:34;;;;;;;18.80;16.20;;;;;;;-128.00;-1.00;-1.00;105649;1251;1003993;-72
2023/04/29 00:29:00;;;;;;;21.10;16.50;;;;;;;-128.00;-1.00;-1.00;105614;1252;1004527;-72
2023/04/29 00:31:27;;;;;;;20.50;15.00;;;;;;;-128.00;-1.00;-1.00;105706;1252;1003707;-72
2023/04/29 00:33:53;;;;;;;19.40;15.70;;;;;;;-128.00;-1.00;-1.00;105674;1252;1004355;-71
2023/04/29 00:36:20;;;;;;;23.60;16.30;;;;;;;-128.00;-1.00;-1.00;105749;1252;1004165;-71
2023/04/29 00:38:46;;;;;;;21.60;16.80;;;;;;;-128.00;-1.00;-1.00;105706;1252;1003595;-71
2023/04/29 00:41:13;;;;;;;20.70;16.60;;;;;;;-128.00;-1.00;-1.00;105734;1251;1004379;-71
2023/04/29 00:43:40;;;;;;;17.70;15.80;;;;;;;-128.00;-1.00;-1.00;105671;1252;1004433;-72
2023/04/29 00:46:06;;;;;;;21.00;15.30;;;;;;;-128.00;-1.00;-1.00;105702;1252;1003474;-72
2023/04/29 00:48:33;;;;;;;18.20;15.50;;;;;;;-128.00;-1.00;-1.00;105728;1252;1005206;-72
2023/04/29 00:51:00;;;;;;;19.70;16.20;;;;;;;-128.00;-1.00;-1.00;105419;1252;1004649;-72
2023/04/29 00:53:27;;;;;;;23.50;16.30;;;;;;;-128.00;-1.00;-1.00;105688;1251;1004882;-71
2023/04/29 00:55:55;;;;;;;19.40;15.50;;;;;;;-128.00;-1.00;-1.00;105756;1252;1004886;-72
2023/04/29 00:58:22;;;;;;;21.30;15.60;;;;;;;-128.00;-1.00;-1.00;105726;1252;1004978;-72
2023/04/29 01:00:49;;;;;;;18.80;16.30;;;;;;;-128.00;-1.00;-1.00;105712;1252;1004143;-71
2023/04/29 01:03:17;;;;;;;21.50;15.90;;;;;;;-128.00;-1.00;-1.00;105719;1251;1004149;-71
2023/04/29 01:05:50;;;;;;;20.40;17.10;;;;;;;-128.00;-1.00;-1.00;105755;1251;1004588;-71
2023/04/29 01:08:47;;;;;;;20.50;16.30;;;;;;;-128.00;-1.00;-1.00;105360;1252;1061658;-72
2023/04/29 01:11:18;;;;;;;21.20;17.40;;;;;;;-128.00;-1.00;-1.00;105637;1252;1056471;-71
2023/04/29 01:13:44;;;;;;;22.00;17.60;;;;;;;-128.00;-1.00;-1.00;105639;1252;1059925;-71
2023/04/29 01:16:20;;;;;;;20.00;17.80;;;;;;;-128.00;-1.00;-1.00;105715;1253;1004309;-72
2023/04/29 01:18:54;;;;;;;25.30;18.30;;;;;;;-128.00;-1.00;-1.00;105639;1252;1047013;-72
2023/04/29 01:21:21;;;;;;;22.10;18.00;;;;;;;-128.00;-1.00;-1.00;105697;1252;1061702;-71
2023/04/29 01:23:54;;;;;;;19.50;16.40;;;;;;;-128.00;-1.00;-1.00;105766;1251;1004710;-72
2023/04/29 01:26:22;;;;;;;24.00;18.40;;;;;;;-128.00;-1.00;-1.00;105741;1252;1058767;-72
2023/04/29 01:29:18;;;;;;;19.40;16.30;;;;;;;-128.00;-1.00;-1.00;105741;1252;1005017;-71
2023/04/29 01:32:03;;;;;;;24.00;17.10;;;;;;;-128.00;-1.00;-1.00;105731;1252;1045955;-72
2023/04/29 01:34:54;;;;;;;22.70;16.90;;;;;;;-128.00;-1.00;-1.00;105762;1252;1060963;-71
2023/04/29 01:37:26;;;;;;;21.90;17.00;;;;;;;-128.00;-1.00;-1.00;105718;1253;1054843;-71
2023/04/29 01:40:11;;;;;;;21.00;17.20;;;;;;;-128.00;-1.00;-1.00;105753;1252;1059079;-72
2023/04/29 01:42:44;;;;;;;22.80;18.60;;;;;;;-128.00;-1.00;-1.00;105746;1251;1046409;-71
2023/04/29 01:45:20;;;;;;;25.90;20.60;;;;;;;-128.00;-1.00;-1.00;105752;1251;1046751;-71
2023/04/29 01:47:51;;;;;;;29.50;19.60;;;;;;;-128.00;-1.00;-1.00;105775;1252;1060898;-71
2023/04/29 01:50:18;;;;;;;23.00;18.80;;;;;;;-128.00;-1.00;-1.00;105442;1251;1054864;-72
2023/04/29 01:52:44;;;;;;;22.20;17.70;;;;;;;-128.00;-1.00;-1.00;105769;1252;1003653;-72
2023/04/29 01:55:11;;;;;;;20.20;17.90;;;;;;;-128.00;-1.00;-1.00;105736;1251;1004235;-71
2023/04/29 01:57:38;;;;;;;19.80;17.60;;;;;;;-128.00;-1.00;-1.00;105777;1252;1004786;-73
2023/04/29 02:00:50;;;;;;;24.30;18.90;;;;;;;-128.00;-1.00;-1.00;105779;1252;1004565;-71
2023/04/29 02:03:17;;;;;;;25.10;17.60;;;;;;;-128.00;-1.00;-1.00;105736;1252;1055763;-71
2023/04/29 02:05:43;;;;;;;20.80;17.50;;;;;;;-128.00;-1.00;-1.00;105675;1252;1004366;-71
2023/04/29 02:08:10;;;;;;;20.70;17.80;;;;;;;-128.00;-1.00;-1.00;105713;1252;1004642;-71
2023/04/29 02:10:36;;;;;;;20.50;17.40;;;;;;;-128.00;-1.00;-1.00;105745;1251;1004050;-72
2023/04/29 02:13:03;;;;;;;23.90;18.40;;;;;;;-128.00;-1.00;-1.00;105684;1252;1004937;-73
2023/04/29 02:15:29;;;;;;;22.80;17.80;;;;;;;-128.00;-1.00;-1.00;105787;1253;1004381;-72
2023/04/29 02:17:56;;;;;;;22.50;17.70;;;;;;;-128.00;-1.00;-1.00;105744;1253;1004564;-73
2023/04/29 02:20:22;;;;;;;20.90;18.30;;;;;;;-128.00;-1.00;-1.00;105795;1252;1004305;-71
2023/04/29 02:22:49;;;;;;;21.00;17.60;;;;;;;-128.00;-1.00;-1.00;105759;1251;1004535;-72
2023/04/29 02:25:16;;;;;;;22.70;17.70;;;;;;;-128.00;-1.00;-1.00;105857;1252;1003125;-72
2023/04/29 02:27:42;;;;;;;21.30;16.90;;;;;;;-128.00;-1.00;-1.00;105782;1252;1004416;-72
2023/04/29 02:30:09;;;;;;;20.60;16.60;;;;;;;-128.00;-1.00;-1.00;105749;1252;1004436;-72
2023/04/29 02:32:38;;;;;;;21.20;17.00;;;;;;;-128.00;-1.00;-1.00;105596;1252;1003961;-72
2023/04/29 02:35:05;;;;;;;26.40;18.60;;;;;;;-128.00;-1.00;-1.00;105759;1251;1047067;-72
2023/04/29 02:37:32;;;;;;;20.80;18.30;;;;;;;-128.00;-1.00;-1.00;105346;1257;1004836;-72
2023/04/29 02:39:58;;;;;;;22.90;18.00;;;;;;;-128.00;-1.00;-1.00;105350;1257;1004296;-73
2023/04/29 02:42:25;;;;;;;26.20;19.00;;;;;;;-128.00;-1.00;-1.00;105340;1260;1003647;-72
2023/04/29 02:44:51;;;;;;;22.00;18.10;;;;;;;-128.00;-1.00;-1.00;105239;1257;1003410;-72
2023/04/29 02:47:18;;;;;;;22.70;17.80;;;;;;;-128.00;-1.00;-1.00;105354;1256;1004789;-73
2023/04/29 02:49:44;;;;;;;22.40;17.60;;;;;;;-128.00;-1.00;-1.00;105397;1257;1004305;-72
2023/04/29 02:52:11;;;;;;;20.30;17.40;;;;;;;-128.00;-1.00;-1.00;105338;1257;1003481;-72
2023/04/29 02:54:38;;;;;;;21.90;17.40;;;;;;;-128.00;-1.00;-1.00;105370;1256;1003938;-72
2023/04/29 02:57:06;;;;;;;23.40;18.10;;;;;;;-128.00;-1.00;-1.00;105349;1256;1004103;-72
2023/04/29 02:59:33;;;;;;;19.60;17.50;;;;;;;-128.00;-1.00;-1.00;105385;1257;1004139;-73
2023/04/29 03:02:00;;;;;;;21.70;17.90;;;;;;;-128.00;-1.00;-1.00;105398;1256;1004779;-72
2023/04/29 03:04:27;;;;;;;18.70;16.70;;;;;;;-128.00;-1.00;-1.00;105333;1258;1004452;-72
2023/04/29 03:06:55;;;;;;;20.80;17.90;;;;;;;-128.00;-1.00;-1.00;105358;1257;1004398;-72
2023/04/29 03:09:22;;;;;;;20.60;18.40;;;;;;;-128.00;-1.00;-1.00;105527;1252;1004975;-72
2023/04/29 03:11:49;;;;;;;20.70;18.30;;;;;;;-128.00;-1.00;-1.00;105797;1251;1003966;-72
2023/04/29 03:14:15;;;;;;;22.80;18.60;;;;;;;-128.00;-1.00;-1.00;105804;1251;1003416;-72
2023/04/29 03:16:43;;;;;;;24.30;19.30;;;;;;;-128.00;-1.00;-1.00;105516;1252;1004626;-72
2023/04/29 03:19:09;;;;;;;21.60;18.20;;;;;;;-128.00;-1.00;-1.00;105808;1251;1003629;-71
2023/04/29 03:21:36;;;;;;;22.30;19.00;;;;;;;-128.00;-1.00;-1.00;105738;1252;1003580;-71
2023/04/29 03:24:02;;;;;;;23.40;19.00;;;;;;;-128.00;-1.00;-1.00;105775;1252;1004029;-72
2023/04/29 03:26:29;;;;;;;21.70;18.20;;;;;;;-128.00;-1.00;-1.00;105822;1253;1004588;-72
2023/04/29 03:28:57;;;;;;;24.00;20.10;;;;;;;-128.00;-1.00;-1.00;105785;1251;1003948;-72
2023/04/29 03:31:24;;;;;;;26.40;21.10;;;;;;;-128.00;-1.00;-1.00;105790;1251;1004046;-72
2023/04/29 03:33:52;;;;;;;25.40;20.00;;;;;;;-128.00;-1.00;-1.00;105749;1252;1004362;-72
2023/04/29 03:36:18;;;;;;;24.50;20.60;;;;;;;-128.00;-1.00;-1.00;105789;1251;1004184;-72
2023/04/29 03:38:45;;;;;;;25.30;21.90;;;;;;;-128.00;-1.00;-1.00;105733;1252;1003747;-72
2023/04/29 03:41:11;;;;;;;22.40;19.90;;;;;;;-128.00;-1.00;-1.00;105800;1253;1004206;-72
2023/04/29 03:43:38;;;;;;;24.30;20.20;;;;;;;-128.00;-1.00;-1.00;105744;1253;1004816;-72
2023/04/29 03:46:05;;;;;;;22.90;20.20;;;;;;;-128.00;-1.00;-1.00;105416;1253;1004322;-72
2023/04/29 03:48:32;;;;;;;22.60;20.20;;;;;;;-128.00;-1.00;-1.00;105779;1252;1003455;-72
2023/04/29 03:50:59;;;;;;;22.80;20.30;;;;;;;-128.00;-1.00;-1.00;105783;1253;1004224;-72
2023/04/29 03:53:26;;;;;;;24.50;20.60;;;;;;;-128.00;-1.00;-1.00;105780;1254;1005068;-72
2023/04/29 03:55:53;;;;;;;25.10;21.00;;;;;;;-128.00;-1.00;-1.00;105781;1252;1004346;-72
2023/04/29 03:58:20;;;;;;;25.20;21.20;;;;;;;-128.00;-1.00;-1.00;105805;1253;1005191;-72
2023/04/29 04:00:47;;;;;;;23.00;20.60;;;;;;;-128.00;-1.00;-1.00;105855;1252;1003655;-72
2023/04/29 04:03:14;;;;;;;24.50;20.60;;;;;;;-128.00;-1.00;-1.00;105769;1252;1004195;-72
2023/04/29 04:06:02;;;;;;;24.70;22.10;;;;;;;-128.00;-1.00;-1.00;105616;1254;1004597;-72
2023/04/29 04:08:28;;;;;;;23.60;21.10;;;;;;;-128.00;-1.00;-1.00;105443;1256;1059400;-74
2023/04/29 04:11:01;;;;;;;26.50;21.30;;;;;;;-128.00;-1.00;-1.00;105447;1257;1004066;-71
2023/04/29 04:13:29;;;;;;;25.10;22.30;;;;;;;-128.00;-1.00;-1.00;105438;1256;1046859;-71
2023/04/29 04:15:55;;;;;;;23.50;20.50;;;;;;;-128.00;-1.00;-1.00;105440;1255;1004303;-71
2023/04/29 04:18:22;;;;;;;23.10;20.20;;;;;;;-128.00;-1.00;-1.00;105440;1256;1004074;-72
2023/04/29 04:20:49;;;;;;;23.70;19.90;;;;;;;-128.00;-1.00;-1.00;105302;1255;1004726;-72
2023/04/29 04:23:16;;;;;;;23.40;20.20;;;;;;;-128.00;-1.00;-1.00;105366;1256;1004220;-71
2023/04/29 04:25:48;;;;;;;21.60;19.20;;;;;;;-128.00;-1.00;-1.00;105223;1255;1003730;-71
2023/04/29 04:28:15;;;;;;;24.30;19.60;;;;;;;-128.00;-1.00;-1.00;105542;1256;1061790;-72
2023/04/29 04:30:42;;;;;;;21.30;18.50;;;;;;;-128.00;-1.00;-1.00;105278;1254;1003942;-72
2023/04/29 04:33:36;;;;;;;20.40;18.20;;;;;;;-128.00;-1.00;-1.00;105407;1256;1058981;-72
2023/04/29 04:36:23;;;;;;;25.50;20.10;;;;;;;-128.00;-1.00;-1.00;105234;1259;1045020;-72
2023/04/29 04:38:50;;;;;;;21.20;19.10;;;;;;;-128.00;-1.00;-1.00;105283;1256;1004070;-72
2023/04/29 04:41:18;;;;;;;21.60;19.30;;;;;;;-128.00;-1.00;-1.00;105300;1256;1004568;-72
2023/04/29 04:44:06;;;;;;;20.80;17.00;;;;;;;-128.00;-1.00;-1.00;105368;1257;1004085;-72
2023/04/29 04:46:32;;;;;;;21.00;18.00;;;;;;;-128.00;-1.00;-1.00;105245;1259;1059733;-72
2023/04/29 04:48:59;;;;;;;21.80;18.30;;;;;;;-128.00;-1.00;-1.00;105215;1259;1003852;-72
2023/04/29 04:51:27;;;;;;;19.60;17.60;;;;;;;-128.00;-1.00;-1.00;105097;1261;1004074;-72
2023/04/29 04:54:15;;;;;;;21.20;18.00;;;;;;;-128.00;-1.00;-1.00;105180;1260;1061209;-72
2023/04/29 04:56:42;;;;;;;21.80;17.70;;;;;;;-128.00;-1.00;-1.00;104948;1262;1056399;-72
2023/04/29 04:59:08;;;;;;;20.30;17.70;;;;;;;-128.00;-1.00;-1.00;105058;1262;1004059;-72
2023/04/29 05:01:35;;;;;;;19.30;17.20;;;;;;;-128.00;-1.00;-1.00;105072;1262;1004790;-72
2023/04/29 05:04:02;;;;;;;22.10;17.00;;;;;;;-128.00;-1.00;-1.00;105083;1261;1005240;-72
2023/04/29 05:06:30;;;;;;;20.30;16.70;;;;;;;-128.00;-1.00;-1.00;104828;1264;1004383;-72
2023/04/29 05:08:57;;;;;;;18.20;16.30;;;;;;;-128.00;-1.00;-1.00;104862;1265;1003608;-72
2023/04/29 05:11:24;;;;;;;18.30;16.30;;;;;;;-128.00;-1.00;-1.00;104847;1265;1004353;-72
2023/04/29 05:13:54;;;;;;;20.50;16.00;;;;;;;-128.00;-1.00;-1.00;104878;1264;1045964;-72
2023/04/29 05:16:26;;;;;;;18.00;16.20;;;;;;;-128.00;-1.00;-1.00;104914;1262;1005498;-72
2023/04/29 05:19:38;;;;;;;19.40;16.30;;;;;;;-128.00;-1.00;-1.00;104876;1264;1060641;-72
2023/04/29 05:22:07;;;;;;;20.70;16.50;;;;;;;-128.00;-1.00;-1.00;104406;1268;1054774;-72
2023/04/29 05:24:34;;;;;;;20.90;16.60;;;;;;;-128.00;-1.00;-1.00;104405;1268;1005184;-73
2023/04/29 05:27:03;;;;;;;20.00;16.80;;;;;;;-128.00;-1.00;-1.00;104680;1268;1004257;-72
2023/04/29 05:29:32;;;;;;;20.40;18.30;;;;;;;-128.00;-1.00;-1.00;104727;1268;1048336;-72
2023/04/29 05:32:10;;;;;;;20.00;17.60;;;;;;;-128.00;-1.00;-1.00;104620;1265;1061764;-73
2023/04/29 05:34:43;;;;;;;19.70;17.80;;;;;;;-128.00;-1.00;-1.00;104849;1262;1055847;-72
2023/04/29 05:37:10;;;;;;;17.40;15.60;;;;;;;-128.00;-1.00;-1.00;105060;1261;1004663;-73
2023/04/29 05:39:57;;;;;;;16.80;15.00;;;;;;;-128.00;-1.00;-1.00;105090;1261;1004088;-73
2023/04/29 05:42:27;;;;;;;20.00;16.20;;;;;;;-128.00;-1.00;-1.00;104898;1264;1047388;-73
2023/04/29 05:44:55;;;;;;;16.40;14.10;;;;;;;-128.00;-1.00;-1.00;104835;1264;1061555;-72
2023/04/29 05:47:26;;;;;;;19.10;15.70;;;;;;;-128.00;-1.00;-1.00;105063;1262;1004673;-73
2023/04/29 05:50:17;;;;;;;25.60;22.50;;;;;;;-128.00;-1.00;-1.00;104613;1269;1059340;-73
2023/04/29 05:52:45;;;;;;;34.00;29.30;;;;;;;-128.00;-1.00;-1.00;104589;1269;1005125;-74
2023/04/29 05:55:43;;;;;;;42.40;33.60;;;;;;;-128.00;-1.00;-1.00;104372;1272;1046659;-72
2023/04/29 05:58:11;;;;;;;40.50;33.40;;;;;;;-128.00;-1.00;-1.00;103831;1271;1062419;-73
2023/04/29 06:00:38;;;;;;;23.90;21.50;;;;;;;-128.00;-1.00;-1.00;104366;1271;1003933;-72
2023/04/29 06:03:26;;;;;;;17.70;16.00;;;;;;;-128.00;-1.00;-1.00;104361;1271;1004240;-72
2023/04/29 06:05:52;;;;;;;17.00;15.30;;;;;;;-128.00;-1.00;-1.00;104038;1274;1045983;-73
2023/04/29 06:08:19;;;;;;;18.80;16.80;;;;;;;-128.00;-1.00;-1.00;104027;1275;1004163;-74
2023/04/29 06:10:51;;;;;;;19.20;16.50;;;;;;;-128.00;-1.00;-1.00;103831;1279;1003762;-73
2023/04/29 06:13:33;;;;;;;15.80;14.20;;;;;;;-128.00;-1.00;-1.00;103870;1273;1056350;-74
2023/04/29 06:15:59;;;;;;;18.50;16.60;;;;;;;-128.00;-1.00;-1.00;104324;1273;1004793;-73
2023/04/29 06:18:26;;;;;;;19.10;17.00;;;;;;;-128.00;-1.00;-1.00;104295;1273;1005074;-73
2023/04/29 06:20:52;;;;;;;17.60;15.80;;;;;;;-128.00;-1.00;-1.00;104363;1273;1004761;-73
2023/04/29 06:23:19;;;;;;;16.50;14.80;;;;;;;-128.00;-1.00;-1.00;104326;1273;1004805;-73
2023/04/29 06:25:45;;;;;;;17.80;15.90;;;;;;;-128.00;-1.00;-1.00;104072;1270;1004572;-73
2023/04/29 06:28:12;;;;;;;17.10;15.50;;;;;;;-128.00;-1.00;-1.00;104380;1270;1004312;-73
2023/04/29 06:30:45;;;;;;;16.20;14.60;;;;;;;-128.00;-1.00;-1.00;104377;1270;1004784;-74
2023/04/29 06:33:12;;;;;;;16.10;14.40;;;;;;;-128.00;-1.00;-1.00;103881;1274;1048120;-73
2023/04/29 06:35:40;;;;;;;18.80;16.70;;;;;;;-128.00;-1.00;-1.00;104086;1274;1003715;-72
2023/04/29 06:38:09;;;;;;;19.60;17.20;;;;;;;-128.00;-1.00;-1.00;104094;1274;1004577;-74
2023/04/29 06:40:36;;;;;;;23.20;20.70;;;;;;;-128.00;-1.00;-1.00;104244;1265;1059211;-74
2023/04/29 06:43:03;;;;;;;19.20;17.20;;;;;;;-128.00;-1.00;-1.00;104903;1265;1003523;-73
2023/04/29 06:45:30;;;;;;;19.40;15.60;;;;;;;-128.00;-1.00;-1.00;104866;1265;1004772;-71
2023/04/29 06:47:57;;;;;;;16.90;15.20;;;;;;;-128.00;-1.00;-1.00;104981;1261;1004963;-73
2023/04/29 06:50:24;;;;;;;15.50;14.00;;;;;;;-128.00;-1.00;-1.00;104919;1261;1004633;-73
2023/04/29 06:52:53;;;;;;;18.30;16.40;;;;;;;-128.00;-1.00;-1.00;105035;1262;1060511;-72
2023/04/29 06:55:20;;;;;;;19.60;17.30;;;;;;;-128.00;-1.00;-1.00;105039;1262;1004836;-72
2023/04/29 06:57:46;;;;;;;19.10;15.40;;;;;;;-128.00;-1.00;-1.00;105397;1256;1003987;-72
2023/04/29 07:00:14;;;;;;;15.70;14.20;;;;;;;-128.00;-1.00;-1.00;105275;1257;1004344;-73
2023/04/29 07:02:41;;;;;;;15.90;14.30;;;;;;;-128.00;-1.00;-1.00;105399;1256;1003656;-73
2023/04/29 07:05:08;;;;;;;15.10;13.30;;;;;;;-128.00;-1.00;-1.00;105358;1256;1004854;-72
2023/04/29 07:07:34;;;;;;;15.60;14.00;;;;;;;-128.00;-1.00;-1.00;105358;1257;1004346;-73
2023/04/29 07:10:01;;;;;;;14.90;13.40;;;;;;;-128.00;-1.00;-1.00;105426;1256;1003947;-73
2023/04/29 07:12:27;;;;;;;13.80;12.30;;;;;;;-128.00;-1.00;-1.00;105152;1257;1003885;-73
2023/04/29 07:14:54;;;;;;;14.70;13.20;;;;;;;-128.00;-1.00;-1.00;105394;1257;1004428;-73
2023/04/29 07:17:20;;;;;;;13.90;12.30;;;;;;;-128.00;-1.00;-1.00;105396;1256;1004459;-72
2023/04/29 07:19:47;;;;;;;14.30;12.90;;;;;;;-128.00;-1.00;-1.00;105398;1256;1004408;-73
2023/04/29 07:22:13;;;;;;;14.30;12.80;;;;;;;-128.00;-1.00;-1.00;105259;1255;1004501;-73
2023/04/29 07:24:40;;;;;;;14.80;13.30;;;;;;;-128.00;-1.00;-1.00;105677;1252;1003849;-74
2023/04/29 07:27:06;;;;;;;13.80;12.50;;;;;;;-128.00;-1.00;-1.00;105505;1253;1004302;-73
2023/04/29 07:29:33;;;;;;;14.50;13.00;;;;;;;-128.00;-1.00;-1.00;105754;1252;1005047;-75
2023/04/29 07:31:59;;;;;;;14.40;12.80;;;;;;;-128.00;-1.00;-1.00;105766;1253;1003184;-73
2023/04/29 07:34:26;;;;;;;18.50;13.80;;;;;;;-128.00;-1.00;-1.00;105754;1254;1004451;-74
2023/04/29 07:36:53;;;;;;;16.90;15.20;;;;;;;-128.00;-1.00;-1.00;105731;1254;1003290;-72
2023/04/29 07:39:19;;;;;;;18.30;15.60;;;;;;;-128.00;-1.00;-1.00;105742;1256;1004250;-72
2023/04/29 07:41:45;;;;;;;17.80;16.00;;;;;;;-128.00;-1.00;-1.00;105492;1256;1004020;-72
2023/04/29 07:44:12;;;;;;;18.20;16.50;;;;;;;-128.00;-1.00;-1.00;105766;1254;1005491;-72
2023/04/29 07:46:39;;;;;;;18.90;16.90;;;;;;;-128.00;-1.00;-1.00;105748;1252;1004109;-72
2023/04/29 07:49:06;;;;;;;18.80;16.80;;;;;;;-128.00;-1.00;-1.00;105789;1253;1004747;-72
2023/04/29 07:51:32;;;;;;;20.20;18.10;;;;;;;-128.00;-1.00;-1.00;105795;1252;1004739;-72
2023/04/29 07:53:59;;;;;;;20.70;18.60;;;;;;;-128.00;-1.00;-1.00;105748;1253;1004065;-72
2023/04/29 07:56:26;;;;;;;24.30;19.40;;;;;;;-128.00;-1.00;-1.00;105762;1253;1004717;-72
2023/04/29 07:58:53;;;;;;;22.30;20.00;;;;;;;-128.00;-1.00;-1.00;105757;1256;1004678;-71
2023/04/29 08:01:19;;;;;;;25.70;21.40;;;;;;;-128.00;-1.00;-1.00;105787;1256;1004663;-69
2023/04/29 08:03:46;;;;;;;22.80;20.40;;;;;;;-128.00;-1.00;-1.00;105743;1253;1003589;-72
2023/04/29 08:06:12;;;;;;;23.50;21.10;;;;;;;-128.00;-1.00;-1.00;105461;1254;1004632;-72
2023/04/29 08:08:39;;;;;;;20.90;18.90;;;;;;;-128.00;-1.00;-1.00;105813;1252;1004431;-73
2023/04/29 08:11:05;;;;;;;20.50;18.50;;;;;;;-128.00;-1.00;-1.00;105778;1254;1004061;-72
2023/04/29 08:13:32;;;;;;;20.00;18.00;;;;;;;-128.00;-1.00;-1.00;105781;1252;1003578;-72
2023/04/29 08:15:58;;;;;;;21.20;19.10;;;;;;;-128.00;-1.00;-1.00;105795;1254;1004216;-73
2023/04/29 08:18:25;;;;;;;18.60;16.60;;;;;;;-128.00;-1.00;-1.00;105777;1253;1004034;-72
2023/04/29 08:20:52;;;;;;;19.10;16.50;;;;;;;-128.00;-1.00;-1.00;105764;1254;1004200;-72
2023/04/29 08:23:18;;;;;;;19.30;17.30;;;;;;;-128.00;-1.00;-1.00;105521;1254;1003462;-72
2023/04/29 08:25:45;;;;;;;19.80;17.80;;;;;;;-128.00;-1.00;-1.00;105543;1254;1004354;-72
2023/04/29 08:28:11;;;;;;;18.30;16.40;;;;;;;-128.00;-1.00;-1.00;105708;1252;1004013;-72
2023/04/29 08:30:39;;;;;;;18.00;16.30;;;;;;;-128.00;-1.00;-1.00;105743;1254;1004123;-72
2023/04/29 08:33:07;;;;;;;16.70;15.00;;;;;;;-128.00;-1.00;-1.00;105703;1253;1003846;-73
2023/04/29 08:35:36;;;;;;;17.20;15.30;;;;;;;-128.00;-1.00;-1.00;105759;1254;1003821;-73
2023/04/29 08:38:07;;;;;;;16.20;14.40;;;;;;;-128.00;-1.00;-1.00;105330;1252;1061770;-72
2023/04/29 08:40:34;;;;;;;15.20;13.80;;;;;;;-128.00;-1.00;-1.00;105742;1253;1055463;-72
2023/04/29 08:43:03;;;;;;;16.70;13.90;;;;;;;-128.00;-1.00;-1.00;105647;1254;1004702;-73
2023/04/29 08:45:31;;;;;;;15.40;13.80;;;;;;;-128.00;-1.00;-1.00;105728;1252;1005109;-73
2023/04/29 08:47:59;;;;;;;13.10;11.60;;;;;;;-128.00;-1.00;-1.00;105785;1252;1004382;-72
2023/04/29 08:50:27;;;;;;;14.80;13.40;;;;;;;-128.00;-1.00;-1.00;105685;1253;1061625;-72
2023/04/29 08:52:54;;;;;;;15.30;13.30;;;;;;;-128.00;-1.00;-1.00;105747;1254;1004286;-73
2023/04/29 08:55:21;;;;;;;15.10;13.70;;;;;;;-128.00;-1.00;-1.00;105748;1254;1003802;-73
2023/04/29 08:57:49;;;;;;;13.90;12.50;;;;;;;-128.00;-1.00;-1.00;105488;1254;1004255;-72
2023/04/29 09:00:18;;;;;;;13.30;12.00;;;;;;;-128.00;-1.00;-1.00;105417;1254;1003961;-72
2023/04/29 09:02:50;;;;;;;14.00;12.60;;;;;;;-128.00;-1.00;-1.00;105529;1254;1061738;-73
2023/04/29 09:05:17;;;;;;;14.10;12.50;;;;;;;-128.00;-1.00;-1.00;105395;1254;1056066;-73
2023/04/29 09:07:45;;;;;;;12.20;11.00;;;;;;;-128.00;-1.00;-1.00;105248;1254;1004673;-73
2023/04/29 09:10:11;;;;;;;12.20;11.10;;;;;;;-128.00;-1.00;-1.00;105532;1254;1004150;-72
2023/04/29 09:12:38;;;;;;;12.20;11.00;;;;;;;-128.00;-1.00;-1.00;105505;1254;1003776;-73
2023/04/29 09:15:05;;;;;;;13.40;12.00;;;;;;;-128.00;-1.00;-1.00;105557;1254;1004374;-73
2023/04/29 09:17:43;;;;;;;12.40;11.20;;;;;;;-128.00;-1.00;-1.00;105346;1254;1004144;-72
2023/04/29 09:20:21;;;;;;;12.70;11.40;;;;;;;-128.00;-1.00;-1.00;105580;1254;1059229;-72
2023/04/29 09:22:48;;;;;;;12.10;10.90;;;;;;;-128.00;-1.00;-1.00;105591;1254;1046007;-72
2023/04/29 09:25:15;;;;;;;13.20;11.90;;;;;;;-128.00;-1.00;-1.00;105596;1254;1004328;-72
2023/04/29 09:27:41;;;;;;;13.80;11.00;;;;;;;-128.00;-1.00;-1.00;105626;1254;1004143;-72
2023/04/29 09:30:09;;;;;;;13.80;11.80;;;;;;;-128.00;-1.00;-1.00;105730;1252;1003589;-72
2023/04/29 09:32:36;;;;;;;12.70;11.40;;;;;;;-128.00;-1.00;-1.00;105410;1254;1004354;-72
2023/04/29 09:35:20;;;;;;;12.70;10.90;;;;;;;-128.00;-1.00;-1.00;105513;1254;1003786;-72
2023/04/29 09:37:47;;;;;;;13.20;11.90;;;;;;;-128.00;-1.00;-1.00;105503;1254;1046211;-71
2023/04/29 09:40:33;;;;;;;12.90;11.60;;;;;;;-128.00;-1.00;-1.00;105518;1253;1003656;-71
2023/04/29 09:43:00;;;;;;;13.00;11.70;;;;;;;-128.00;-1.00;-1.00;105414;1256;1055387;-72
2023/04/29 09:45:40;;;;;;;11.50;10.40;;;;;;;-128.00;-1.00;-1.00;105456;1254;1004257;-72
2023/04/29 09:48:08;;;;;;;10.50;9.60;;;;;;;-128.00;-1.00;-1.00;105420;1254;1045116;-71
2023/04/29 09:50:36;;;;;;;14.60;11.10;;;;;;;-128.00;-1.00;-1.00;105436;1253;1004415;-72
2023/04/29 09:53:09;;;;;;;12.70;10.80;;;;;;;-128.00;-1.00;-1.00;105529;1254;1004992;-74
2023/04/29 09:55:58;;;;;;;12.80;11.50;;;;;;;-128.00;-1.00;-1.00;105392;1253;1055345;-72
2023/04/29 09:58:39;;;;;;;13.10;10.80;;;;;;;-128.00;-1.00;-1.00;105377;1254;1060669;-72
2023/04/29 10:01:06;;;;;;;13.40;10.90;;;;;;;-128.00;-1.00;-1.00;105460;1260;1044491;-72
2023/04/29 10:03:37;;;;;;;13.40;12.10;;;;;;;-128.00;-1.00;-1.00;105410;1253;1003873;-72
2023/04/29 10:06:05;;;;;;;18.70;16.70;;;;;;;-128.00;-1.00;-1.00;105469;1252;1061663;-72
2023/04/29 10:08:33;;;;;;;13.50;11.40;;;;;;;-128.00;-1.00;-1.00;105513;1254;1055960;-72
2023/04/29 10:11:01;;;;;;;19.30;17.00;;;;;;;-128.00;-1.00;-1.00;105533;1254;1003752;-72
2023/04/29 10:13:29;;;;;;;15.20;11.80;;;;;;;-128.00;-1.00;-1.00;105306;1254;1004075;-72
2023/04/29 10:16:22;;;;;;;12.10;10.90;;;;;;;-128.00;-1.00;-1.00;105300;1254;1004852;-72
2023/04/29 10:18:54;;;;;;;12.30;10.10;;;;;;;-128.00;-1.00;-1.00;105574;1254;1062463;-72
2023/04/29 10:21:26;;;;;;;13.90;11.90;;;;;;;-128.00;-1.00;-1.00;105272;1254;1055321;-71
2023/04/29 10:23:55;;;;;;;15.60;12.10;;;;;;;-128.00;-1.00;-1.00;105418;1254;1058780;-72
2023/04/29 10:26:27;;;;;;;11.90;10.50;;;;;;;-128.00;-1.00;-1.00;105513;1254;1044957;-71
2023/04/29 10:28:58;;;;;;;12.10;11.00;;;;;;;-128.00;-1.00;-1.00;105284;1254;1046763;-71
2023/04/29 10:31:26;;;;;;;13.90;11.40;;;;;;;-128.00;-1.00;-1.00;105395;1254;1061641;-73
2023/04/29 10:33:56;;;;;;;12.90;10.90;;;;;;;-128.00;-1.00;-1.00;105569;1254;1004208;-72
2023/04/29 10:36:29;;;;;;;25.40;22.00;;;;;;;-128.00;-1.00;-1.00;105260;1254;1058577;-72
2023/04/29 10:39:02;;;;;;;12.30;10.80;;;;;;;-128.00;-1.00;-1.00;105441;1254;1044936;-72
2023/04/29 10:41:36;;;;;;;12.70;11.40;;;;;;;-128.00;-1.00;-1.00;105417;1253;1047098;-71
2023/04/29 10:44:03;;;;;;;12.00;10.70;;;;;;;-128.00;-1.00;-1.00;105482;1253;1060206;-72
2023/04/29 10:46:30;;;;;;;11.90;10.70;;;;;;;-128.00;-1.00;-1.00;105672;1252;1004364;-72
2023/04/29 10:49:02;;;;;;;12.90;11.60;;;;;;;-128.00;-1.00;-1.00;105706;1253;1003926;-71
2023/04/29 10:51:34;;;;;;;12.20;10.60;;;;;;;-128.00;-1.00;-1.00;105647;1253;1044894;-71
2023/04/29 10:54:19;;;;;;;12.20;10.20;;;;;;;-128.00;-1.00;-1.00;105765;1253;1046005;-72
2023/04/29 10:56:50;;;;;;;11.10;9.90;;;;;;;-128.00;-1.00;-1.00;105671;1252;1061198;-72
2023/04/29 10:59:40;;;;;;;11.20;10.00;;;;;;;-128.00;-1.00;-1.00;105688;1253;1056609;-72
2023/04/29 11:02:09;;;;;;;11.60;10.40;;;;;;;-128.00;-1.00;-1.00;105665;1253;1059833;-72
2023/04/29 11:05:08;;;;;;;11.50;10.40;;;;;;;-128.00;-1.00;-1.00;105642;1253;1044387;-72
2023/04/29 11:07:35;;;;;;;11.40;10.30;;;;;;;-128.00;-1.00;-1.00;105702;1254;1046030;-72
2023/04/29 11:10:02;;;;;;;11.90;10.80;;;;;;;-128.00;-1.00;-1.00;105690;1253;1003637;-72
2023/04/29 11:12:29;;;;;;;17.50;12.30;;;;;;;-128.00;-1.00;-1.00;105699;1253;1004635;-72
2023/04/29 11:15:03;;;;;;;27.40;18.00;;;;;;;-128.00;-1.00;-1.00;105666;1252;1004361;-72